sensor_id;sensor_type;location;lat;lon;timestamp;pressure;altitude;pressure_sealevel;temperature;humidity
19845;BME280;10083;51.038;7.012;2023-07-13T00:01:52;103124.47;;;18.85;100.00
19845;BME280;10083;51.038;7.012;2023-07-13T00:04:21;103139.91;;;18.83;100.00
19845;BME280;10083;51.038;7.012;2023-07-13T00:06:51;103130.13;;;18.74;100.00
19845;BME280;10083;51.038;7.012;2023-07-13T00:09:19;103142.66;;;18.80;100.00
19845;BME280;10083;51.038;7.012;2023-07-13T00:11:50;103148.69;;;18.46;100.00
19845;BME280;10083;51.038;7.012;2023-07-13T00:14:20;103161.44;;;18.41;100.00
19845;BME280;10083;51.038;7.012;2023-07-13T00:16:47;103142.88;;;18.71;100.00
19845;BME280;10083;51.038;7.012;2023-07-13T00:19:14;103159.66;;;18.40;100.00
19845;BME280;10083;51.038;7.012;2023-07-13T00:21:42;103154.81;;;18.61;100.00
19845;BME280;10083;51.038;7.012;2023-07-13T00:24:35;103158.56;;;18.52;100.00
19845;BME280;10083;51.038;7.012;2023-07-13T00:27:08;103160.59;;;18.39;100.00
19845;BME280;10083;51.038;7.012;2023-07-13T00:41:09;103123.44;;;18.92;100.00
19845;BME280;10083;51.038;7.012;2023-07-13T00:43:38;103123.56;;;18.86;100.00
19845;BME280;10083;51.038;7.012;2023-07-13T00:46:24;103156.22;;;18.31;100.00
19845;BME280;10083;51.038;7.012;2023-07-13T00:48:53;103145.69;;;18.65;100.00
19845;BME280;10083;51.038;7.012;2023-07-13T00:51:30;103142.28;;;18.50;100.00
19845;BME280;10083;51.038;7.012;2023-07-13T00:54:00;103146.97;;;18.42;100.00
19845;BME280;10083;51.038;7.012;2023-07-13T00:56:33;103152.63;;;18.29;100.00
19845;BME280;10083;51.038;7.012;2023-07-13T00:59:02;103139.44;;;18.60;100.00
19845;BME280;10083;51.038;7.012;2023-07-13T01:01:29;103134.00;;;18.61;100.00
19845;BME280;10083;51.038;7.012;2023-07-13T01:03:57;103115.44;;;18.84;100.00
19845;BME280;10083;51.038;7.012;2023-07-13T01:06:25;103120.28;;;18.67;100.00
19845;BME280;10083;51.038;7.012;2023-07-13T01:08:52;103129.56;;;18.56;100.00
19845;BME280;10083;51.038;7.012;2023-07-13T01:11:21;103119.03;;;18.85;100.00
19845;BME280;10083;51.038;7.012;2023-07-13T01:13:50;103137.03;;;18.41;100.00
19845;BME280;10083;51.038;7.012;2023-07-13T01:16:21;103138.66;;;18.51;100.00
19845;BME280;10083;51.038;7.012;2023-07-13T01:18:50;103149.97;;;18.24;100.00
19845;BME280;10083;51.038;7.012;2023-07-13T01:21:18;103138.47;;;18.64;100.00
19845;BME280;10083;51.038;7.012;2023-07-13T01:23:46;103140.41;;;18.57;100.00
19845;BME280;10083;51.038;7.012;2023-07-13T01:29:06;103130.22;;;18.68;100.00
19845;BME280;10083;51.038;7.012;2023-07-13T01:31:36;103131.31;;;18.60;100.00
19845;BME280;10083;51.038;7.012;2023-07-13T01:34:03;103143.13;;;18.56;100.00
19845;BME280;10083;51.038;7.012;2023-07-13T01:36:31;103143.28;;;18.46;100.00
19845;BME280;10083;51.038;7.012;2023-07-13T01:38:59;103146.78;;;18.55;100.00
19845;BME280;10083;51.038;7.012;2023-07-13T01:41:26;103146.59;;;18.65;100.00
19845;BME280;10083;51.038;7.012;2023-07-13T01:43:53;103153.66;;;18.20;100.00
19845;BME280;10083;51.038;7.012;2023-07-13T01:46:20;103149.56;;;18.48;100.00
19845;BME280;10083;51.038;7.012;2023-07-13T01:48:47;103141.16;;;18.64;100.00
19845;BME280;10083;51.038;7.012;2023-07-13T01:51:16;103144.16;;;18.47;100.00
19845;BME280;10083;51.038;7.012;2023-07-13T01:53:46;103165.50;;;18.15;100.00
19845;BME280;10083;51.038;7.012;2023-07-13T01:56:13;103167.16;;;18.26;100.00
19845;BME280;10083;51.038;7.012;2023-07-13T01:58:40;103161.59;;;18.32;100.00
19845;BME280;10083;51.038;7.012;2023-07-13T02:01:07;103155.31;;;18.30;100.00
19845;BME280;10083;51.038;7.012;2023-07-13T02:03:34;103163.13;;;17.96;100.00
19845;BME280;10083;51.038;7.012;2023-07-13T02:06:01;103177.72;;;17.85;100.00
19845;BME280;10083;51.038;7.012;2023-07-13T02:08:37;103173.16;;;17.90;100.00
19845;BME280;10083;51.038;7.012;2023-07-13T02:11:05;103169.53;;;17.89;100.00
19845;BME280;10083;51.038;7.012;2023-07-13T02:13:32;103158.19;;;18.21;100.00
19845;BME280;10083;51.038;7.012;2023-07-13T02:16:00;103161.19;;;18.03;100.00
19845;BME280;10083;51.038;7.012;2023-07-13T02:18:28;103164.34;;;18.31;100.00
19845;BME280;10083;51.038;7.012;2023-07-13T02:20:55;103161.03;;;18.12;100.00
19845;BME280;10083;51.038;7.012;2023-07-13T02:23:22;103155.81;;;18.00;100.00
19845;BME280;10083;51.038;7.012;2023-07-13T02:25:49;103166.53;;;18.07;100.00
19845;BME280;10083;51.038;7.012;2023-07-13T02:28:18;103164.28;;;17.77;100.00
19845;BME280;10083;51.038;7.012;2023-07-13T02:30:45;103156.34;;;17.63;100.00
19845;BME280;10083;51.038;7.012;2023-07-13T02:33:15;103133.84;;;17.58;100.00
19845;BME280;10083;51.038;7.012;2023-07-13T02:35:42;103123.94;;;17.54;100.00
19845;BME280;10083;51.038;7.012;2023-07-13T02:38:09;103115.38;;;17.22;100.00
19845;BME280;10083;51.038;7.012;2023-07-13T02:40:36;103095.09;;;17.50;100.00
19845;BME280;10083;51.038;7.012;2023-07-13T02:43:04;103100.06;;;17.84;100.00
19845;BME280;10083;51.038;7.012;2023-07-13T02:45:35;103106.47;;;17.78;100.00
19845;BME280;10083;51.038;7.012;2023-07-13T02:48:17;103109.84;;;17.92;100.00
19845;BME280;10083;51.038;7.012;2023-07-13T02:50:44;103124.81;;;17.59;100.00
19845;BME280;10083;51.038;7.012;2023-07-13T02:53:12;103127.94;;;17.26;100.00
19845;BME280;10083;51.038;7.012;2023-07-13T02:55:39;103125.50;;;17.74;100.00
19845;BME280;10083;51.038;7.012;2023-07-13T02:58:12;103125.69;;;17.60;100.00
19845;BME280;10083;51.038;7.012;2023-07-13T03:00:44;103129.59;;;17.39;100.00
19845;BME280;10083;51.038;7.012;2023-07-13T03:03:11;103126.69;;;17.53;100.00
19845;BME280;10083;51.038;7.012;2023-07-13T03:05:42;103133.53;;;17.80;100.00
19845;BME280;10083;51.038;7.012;2023-07-13T03:08:10;103146.50;;;17.55;100.00
19845;BME280;10083;51.038;7.012;2023-07-13T03:10:38;103157.34;;;17.55;100.00
19845;BME280;10083;51.038;7.012;2023-07-13T03:13:09;103160.94;;;17.58;100.00
19845;BME280;10083;51.038;7.012;2023-07-13T03:15:36;103172.13;;;17.30;100.00
19845;BME280;10083;51.038;7.012;2023-07-13T03:18:04;103160.34;;;17.34;100.00
19845;BME280;10083;51.038;7.012;2023-07-13T03:20:33;103156.06;;;17.17;100.00
19845;BME280;10083;51.038;7.012;2023-07-13T03:23:00;103144.03;;;17.38;100.00
19845;BME280;10083;51.038;7.012;2023-07-13T03:25:29;103144.81;;;17.48;100.00
19845;BME280;10083;51.038;7.012;2023-07-13T03:27:57;103151.03;;;17.54;100.00
19845;BME280;10083;51.038;7.012;2023-07-13T03:30:24;103151.94;;;17.53;100.00
19845;BME280;10083;51.038;7.012;2023-07-13T03:32:54;103160.13;;;17.50;100.00
19845;BME280;10083;51.038;7.012;2023-07-13T03:35:56;103178.34;;;17.36;100.00
19845;BME280;10083;51.038;7.012;2023-07-13T03:38:37;103169.22;;;17.46;100.00
19845;BME280;10083;51.038;7.012;2023-07-13T03:41:16;103169.78;;;17.71;100.00
19845;BME280;10083;51.038;7.012;2023-07-13T03:44:07;103191.16;;;17.25;100.00
19845;BME280;10083;51.038;7.012;2023-07-13T03:46:56;103189.28;;;17.30;100.00
19845;BME280;10083;51.038;7.012;2023-07-13T03:49:42;103186.34;;;17.48;100.00
19845;BME280;10083;51.038;7.012;2023-07-13T03:52:30;103190.78;;;17.55;100.00
19845;BME280;10083;51.038;7.012;2023-07-13T03:55:10;103198.97;;;17.51;100.00
19845;BME280;10083;51.038;7.012;2023-07-13T04:01:11;103205.44;;;17.38;100.00
19845;BME280;10083;51.038;7.012;2023-07-13T04:03:59;103197.00;;;17.63;100.00
19845;BME280;10083;51.038;7.012;2023-07-13T04:06:43;103212.13;;;17.08;100.00
19845;BME280;10083;51.038;7.012;2023-07-13T04:09:42;103210.84;;;17.39;100.00
19845;BME280;10083;51.038;7.012;2023-07-13T04:12:16;103203.69;;;17.32;100.00
19845;BME280;10083;51.038;7.012;2023-07-13T04:14:51;103206.66;;;17.14;100.00
19845;BME280;10083;51.038;7.012;2023-07-13T04:17:26;103205.31;;;17.48;100.00
19845;BME280;10083;51.038;7.012;2023-07-13T04:20:10;103213.63;;;17.33;100.00
19845;BME280;10083;51.038;7.012;2023-07-13T04:22:52;103225.47;;;17.23;100.00
19845;BME280;10083;51.038;7.012;2023-07-13T04:25:36;103207.31;;;17.34;100.00
19845;BME280;10083;51.038;7.012;2023-07-13T04:28:17;103212.59;;;17.43;100.00
19845;BME280;10083;51.038;7.012;2023-07-13T04:30:56;103216.97;;;17.56;100.00
19845;BME280;10083;51.038;7.012;2023-07-13T04:33:38;103213.34;;;17.59;100.00
19845;BME280;10083;51.038;7.012;2023-07-13T04:36:19;103207.59;;;17.82;100.00
19845;BME280;10083;51.038;7.012;2023-07-13T04:39:05;103210.75;;;17.45;100.00
19845;BME280;10083;51.038;7.012;2023-07-13T04:42:23;103212.66;;;17.40;100.00
19845;BME280;10083;51.038;7.012;2023-07-13T04:45:07;103205.97;;;17.70;100.00
19845;BME280;10083;51.038;7.012;2023-07-13T04:47:54;103212.31;;;17.69;100.00
19845;BME280;10083;51.038;7.012;2023-07-13T04:50:43;103210.50;;;17.70;100.00
19845;BME280;10083;51.038;7.012;2023-07-13T04:53:24;103209.59;;;17.71;100.00
19845;BME280;10083;51.038;7.012;2023-07-13T04:56:19;103210.44;;;17.71;100.00
19845;BME280;10083;51.038;7.012;2023-07-13T04:59:06;103202.31;;;17.71;100.00
19845;BME280;10083;51.038;7.012;2023-07-13T05:01:54;103197.56;;;17.88;100.00
19845;BME280;10083;51.038;7.012;2023-07-13T05:04:41;103203.38;;;17.59;100.00
19845;BME280;10083;51.038;7.012;2023-07-13T05:07:22;103194.09;;;17.79;100.00
19845;BME280;10083;51.038;7.012;2023-07-13T05:10:06;103195.19;;;17.66;100.00
19845;BME280;10083;51.038;7.012;2023-07-13T05:12:52;103190.75;;;17.58;100.00
19845;BME280;10083;51.038;7.012;2023-07-13T05:18:59;103173.59;;;17.55;100.00
19845;BME280;10083;51.038;7.012;2023-07-13T05:21:41;103173.28;;;17.81;100.00
19845;BME280;10083;51.038;7.012;2023-07-13T05:24:31;103166.38;;;17.54;100.00
19845;BME280;10083;51.038;7.012;2023-07-13T05:27:12;103162.69;;;17.64;100.00
19845;BME280;10083;51.038;7.012;2023-07-13T05:29:48;103165.38;;;17.64;100.00
19845;BME280;10083;51.038;7.012;2023-07-13T05:32:34;103162.78;;;17.55;100.00
19845;BME280;10083;51.038;7.012;2023-07-13T05:38:34;103134.41;;;17.83;100.00
19845;BME280;10083;51.038;7.012;2023-07-13T05:46:03;103145.81;;;18.03;100.00
19845;BME280;10083;51.038;7.012;2023-07-13T05:47:48;103153.69;;;18.19;100.00
19845;BME280;10083;51.038;7.012;2023-07-13T05:58:33;103188.41;;;18.53;100.00
19845;BME280;10083;51.038;7.012;2023-07-13T06:02:03;103201.38;;;18.35;100.00
19845;BME280;10083;51.038;7.012;2023-07-13T06:04:55;103192.25;;;18.39;100.00
19845;BME280;10083;51.038;7.012;2023-07-13T06:08:15;103198.19;;;18.64;100.00
19845;BME280;10083;51.038;7.012;2023-07-13T06:10:58;103202.97;;;18.48;100.00
19845;BME280;10083;51.038;7.012;2023-07-13T06:14:00;103190.47;;;18.36;100.00
19845;BME280;10083;51.038;7.012;2023-07-13T06:19:57;103170.69;;;18.30;100.00
19845;BME280;10083;51.038;7.012;2023-07-13T06:22:42;103151.69;;;18.31;100.00
19845;BME280;10083;51.038;7.012;2023-07-13T06:28:16;103158.19;;;18.75;100.00
19845;BME280;10083;51.038;7.012;2023-07-13T06:31:07;103176.19;;;18.79;100.00
19845;BME280;10083;51.038;7.012;2023-07-13T06:37:29;103165.78;;;18.55;100.00
19845;BME280;10083;51.038;7.012;2023-07-13T06:40:18;103153.50;;;18.81;100.00
19845;BME280;10083;51.038;7.012;2023-07-13T06:43:18;103173.81;;;19.08;100.00
19845;BME280;10083;51.038;7.012;2023-07-13T06:45:57;103181.50;;;18.85;100.00
19845;BME280;10083;51.038;7.012;2023-07-13T06:48:42;103178.44;;;19.03;100.00
19845;BME280;10083;51.038;7.012;2023-07-13T06:51:39;103192.47;;;19.25;100.00
19845;BME280;10083;51.038;7.012;2023-07-13T06:54:27;103209.59;;;19.30;100.00
19845;BME280;10083;51.038;7.012;2023-07-13T06:57:14;103215.09;;;19.27;100.00
19845;BME280;10083;51.038;7.012;2023-07-13T06:59:57;103223.38;;;19.19;100.00
19845;BME280;10083;51.038;7.012;2023-07-13T07:02:35;103221.88;;;19.03;100.00
19845;BME280;10083;51.038;7.012;2023-07-13T07:05:25;103204.53;;;19.10;100.00
19845;BME280;10083;51.038;7.012;2023-07-13T07:08:22;103204.97;;;19.33;100.00
19845;BME280;10083;51.038;7.012;2023-07-13T07:11:11;103208.41;;;19.86;100.00
19845;BME280;10083;51.038;7.012;2023-07-13T07:14:32;103230.38;;;19.75;100.00
19845;BME280;10083;51.038;7.012;2023-07-13T07:17:17;103257.56;;;19.75;100.00
19845;BME280;10083;51.038;7.012;2023-07-13T07:20:26;103256.78;;;20.10;100.00
19845;BME280;10083;51.038;7.012;2023-07-13T07:23:15;103264.84;;;20.16;100.00
19845;BME280;10083;51.038;7.012;2023-07-13T07:25:58;103277.03;;;20.39;100.00
19845;BME280;10083;51.038;7.012;2023-07-13T07:28:47;103290.91;;;20.26;100.00
19845;BME280;10083;51.038;7.012;2023-07-13T07:31:33;103293.38;;;20.39;100.00
19845;BME280;10083;51.038;7.012;2023-07-13T07:34:21;103285.41;;;20.31;100.00
19845;BME280;10083;51.038;7.012;2023-07-13T07:37:11;103287.38;;;20.61;100.00
19845;BME280;10083;51.038;7.012;2023-07-13T07:43:38;103273.38;;;20.76;100.00
19845;BME280;10083;51.038;7.012;2023-07-13T07:46:51;103269.38;;;20.90;100.00
19845;BME280;10083;51.038;7.012;2023-07-13T07:49:36;103264.28;;;20.76;100.00
19845;BME280;10083;51.038;7.012;2023-07-13T07:52:29;103282.63;;;20.71;100.00
19845;BME280;10083;51.038;7.012;2023-07-13T07:55:20;103254.94;;;21.22;100.00
19845;BME280;10083;51.038;7.012;2023-07-13T07:58:01;103244.50;;;21.03;100.00
19845;BME280;10083;51.038;7.012;2023-07-13T08:00:54;103266.97;;;20.79;100.00
19845;BME280;10083;51.038;7.012;2023-07-13T08:03:40;103263.38;;;21.12;100.00
19845;BME280;10083;51.038;7.012;2023-07-13T08:06:48;103246.38;;;21.35;100.00
19845;BME280;10083;51.038;7.012;2023-07-13T08:13:03;103234.97;;;21.21;100.00
19845;BME280;10083;51.038;7.012;2023-07-13T08:15:44;103262.34;;;21.49;100.00
19845;BME280;10083;51.038;7.012;2023-07-13T08:18:49;103253.47;;;21.41;100.00
19845;BME280;10083;51.038;7.012;2023-07-13T08:21:46;103259.56;;;21.50;100.00
19845;BME280;10083;51.038;7.012;2023-07-13T08:24:23;103249.56;;;21.49;100.00
19845;BME280;10083;51.038;7.012;2023-07-13T08:26:57;103215.66;;;21.89;100.00
19845;BME280;10083;51.038;7.012;2023-07-13T08:29:26;103206.41;;;21.94;100.00
19845;BME280;10083;51.038;7.012;2023-07-13T08:32:04;103215.81;;;22.14;100.00
19845;BME280;10083;51.038;7.012;2023-07-13T08:34:40;103178.38;;;22.45;100.00
19845;BME280;10083;51.038;7.012;2023-07-13T08:37:21;103184.09;;;22.09;100.00
19845;BME280;10083;51.038;7.012;2023-07-13T08:39:52;103170.88;;;22.50;100.00
19845;BME280;10083;51.038;7.012;2023-07-13T08:42:42;103164.19;;;22.32;100.00
19845;BME280;10083;51.038;7.012;2023-07-13T08:45:36;103165.03;;;22.36;100.00
19845;BME280;10083;51.038;7.012;2023-07-13T08:48:46;103156.50;;;22.19;100.00
19845;BME280;10083;51.038;7.012;2023-07-13T08:52:02;103184.47;;;21.97;100.00
19845;BME280;10083;51.038;7.012;2023-07-13T08:55:06;103182.50;;;22.57;100.00
19845;BME280;10083;51.038;7.012;2023-07-13T08:58:23;103163.38;;;22.30;100.00
19845;BME280;10083;51.038;7.012;2023-07-13T09:01:39;103152.41;;;22.58;100.00
19845;BME280;10083;51.038;7.012;2023-07-13T09:04:28;103137.75;;;22.85;100.00
19845;BME280;10083;51.038;7.012;2023-07-13T09:07:18;103100.13;;;22.67;100.00
19845;BME280;10083;51.038;7.012;2023-07-13T09:10:11;103122.41;;;22.57;100.00
19845;BME280;10083;51.038;7.012;2023-07-13T09:12:57;103124.81;;;22.90;100.00
19845;BME280;10083;51.038;7.012;2023-07-13T09:19:20;103021.84;;;23.81;100.00
19845;BME280;10083;51.038;7.012;2023-07-13T09:22:31;102970.81;;;24.00;100.00
19845;BME280;10083;51.038;7.012;2023-07-13T09:25:37;102967.25;;;23.78;100.00
19845;BME280;10083;51.038;7.012;2023-07-13T09:28:47;102958.78;;;24.04;100.00
19845;BME280;10083;51.038;7.012;2023-07-13T09:31:34;102936.47;;;24.33;100.00
19845;BME280;10083;51.038;7.012;2023-07-13T09:34:35;102876.44;;;25.04;100.00
19845;BME280;10083;51.038;7.012;2023-07-13T09:37:35;102869.78;;;24.91;100.00
19845;BME280;10083;51.038;7.012;2023-07-13T09:43:22;102974.81;;;24.13;100.00
19845;BME280;10083;51.038;7.012;2023-07-13T09:46:28;102947.72;;;24.66;100.00
19845;BME280;10083;51.038;7.012;2023-07-13T09:49:11;102947.50;;;24.32;100.00
19845;BME280;10083;51.038;7.012;2023-07-13T09:52:20;103033.16;;;23.94;100.00
19845;BME280;10083;51.038;7.012;2023-07-13T09:54:53;102989.69;;;24.48;100.00
19845;BME280;10083;51.038;7.012;2023-07-13T09:57:27;102980.56;;;24.48;100.00
19845;BME280;10083;51.038;7.012;2023-07-13T09:59:55;102926.81;;;24.83;100.00
19845;BME280;10083;51.038;7.012;2023-07-13T10:02:45;102900.03;;;24.11;100.00
19845;BME280;10083;51.038;7.012;2023-07-13T10:05:20;102879.41;;;24.99;100.00
19845;BME280;10083;51.038;7.012;2023-07-13T10:08:19;102840.16;;;25.33;100.00
19845;BME280;10083;51.038;7.012;2023-07-13T10:11:14;102785.19;;;25.86;100.00
19845;BME280;10083;51.038;7.012;2023-07-13T10:14:39;102719.84;;;26.08;100.00
19845;BME280;10083;51.038;7.012;2023-07-13T10:17:49;102863.22;;;25.12;100.00
19845;BME280;10083;51.038;7.012;2023-07-13T10:21:08;102756.00;;;26.95;100.00
19845;BME280;10083;51.038;7.012;2023-07-13T10:24:02;102790.78;;;25.67;100.00
19845;BME280;10083;51.038;7.012;2023-07-13T10:27:03;102790.38;;;26.41;100.00
19845;BME280;10083;51.038;7.012;2023-07-13T10:29:52;102816.31;;;25.70;100.00
19845;BME280;10083;51.038;7.012;2023-07-13T10:32:49;102796.56;;;25.96;100.00
19845;BME280;10083;51.038;7.012;2023-07-13T10:35:56;102639.06;;;27.74;100.00
19845;BME280;10083;51.038;7.012;2023-07-13T10:42:11;102646.03;;;27.23;100.00
19845;BME280;10083;51.038;7.012;2023-07-13T10:45:34;102665.03;;;26.68;100.00
19845;BME280;10083;51.038;7.012;2023-07-13T10:48:51;102496.75;;;27.75;100.00
19845;BME280;10083;51.038;7.012;2023-07-13T10:51:41;102472.16;;;28.76;100.00
19845;BME280;10083;51.038;7.012;2023-07-13T10:57:29;102577.94;;;27.27;100.00
19845;BME280;10083;51.038;7.012;2023-07-13T11:00:46;102760.78;;;25.97;100.00
19845;BME280;10083;51.038;7.012;2023-07-13T11:03:50;102861.63;;;24.89;100.00
19845;BME280;10083;51.038;7.012;2023-07-13T11:07:11;102913.78;;;24.69;100.00
19845;BME280;10083;51.038;7.012;2023-07-13T11:10:30;102872.28;;;24.76;100.00
19845;BME280;10083;51.038;7.012;2023-07-13T11:20:36;102966.13;;;24.24;100.00
19845;BME280;10083;51.038;7.012;2023-07-13T11:23:31;102785.28;;;25.67;100.00
19845;BME280;10083;51.038;7.012;2023-07-13T11:26:59;102798.13;;;25.84;100.00
19845;BME280;10083;51.038;7.012;2023-07-13T11:33:27;102889.72;;;24.75;100.00
19845;BME280;10083;51.038;7.012;2023-07-13T11:36:07;102798.25;;;24.95;100.00
19845;BME280;10083;51.038;7.012;2023-07-13T11:39:03;102818.03;;;25.02;100.00
19845;BME280;10083;51.038;7.012;2023-07-13T11:42:08;102708.00;;;26.24;100.00
19845;BME280;10083;51.038;7.012;2023-07-13T11:44:57;102720.63;;;25.95;100.00
19845;BME280;10083;51.038;7.012;2023-07-13T11:47:57;102675.06;;;25.75;100.00
19845;BME280;10083;51.038;7.012;2023-07-13T11:54:23;102877.63;;;24.02;100.00
19845;BME280;10083;51.038;7.012;2023-07-13T11:57:07;102900.13;;;24.10;100.00
19845;BME280;10083;51.038;7.012;2023-07-13T12:00:02;102895.91;;;24.42;100.00
19845;BME280;10083;51.038;7.012;2023-07-13T12:02:48;102814.41;;;24.83;100.00
19845;BME280;10083;51.038;7.012;2023-07-13T12:06:19;102844.34;;;24.68;100.00
19845;BME280;10083;51.038;7.012;2023-07-13T12:09:12;102807.69;;;24.90;100.00
19845;BME280;10083;51.038;7.012;2023-07-13T12:12:21;102733.25;;;25.66;100.00
19845;BME280;10083;51.038;7.012;2023-07-13T12:15:23;102741.25;;;25.36;100.00
19845;BME280;10083;51.038;7.012;2023-07-13T12:18:29;102629.09;;;25.46;100.00
19845;BME280;10083;51.038;7.012;2023-07-13T12:21:20;102618.91;;;25.81;100.00
19845;BME280;10083;51.038;7.012;2023-07-13T12:24:05;102478.97;;;27.66;100.00
19845;BME280;10083;51.038;7.012;2023-07-13T12:27:13;102484.34;;;26.70;100.00
19845;BME280;10083;51.038;7.012;2023-07-13T12:30:39;102444.88;;;27.94;100.00
19845;BME280;10083;51.038;7.012;2023-07-13T12:37:07;102373.78;;;27.47;100.00
19845;BME280;10083;51.038;7.012;2023-07-13T12:40:01;102640.88;;;25.32;100.00
19845;BME280;10083;51.038;7.012;2023-07-13T12:46:21;102323.72;;;28.81;100.00
19845;BME280;10083;51.038;7.012;2023-07-13T12:49:14;102478.16;;;26.52;100.00
19845;BME280;10083;51.038;7.012;2023-07-13T12:52:31;102501.91;;;26.53;100.00
19845;BME280;10083;51.038;7.012;2023-07-13T12:55:25;102358.59;;;29.18;100.00
19845;BME280;10083;51.038;7.012;2023-07-13T12:58:21;102356.13;;;28.54;100.00
19845;BME280;10083;51.038;7.012;2023-07-13T13:01:13;102238.81;;;28.73;100.00
19845;BME280;10083;51.038;7.012;2023-07-13T13:04:05;102375.69;;;27.86;100.00
19845;BME280;10083;51.038;7.012;2023-07-13T13:07:03;102495.97;;;26.89;100.00
19845;BME280;10083;51.038;7.012;2023-07-13T13:10:04;102539.88;;;26.47;100.00
19845;BME280;10083;51.038;7.012;2023-07-13T13:16:51;102206.63;;;29.09;100.00
19845;BME280;10083;51.038;7.012;2023-07-13T13:19:47;102247.69;;;28.53;100.00
19845;BME280;10083;51.038;7.012;2023-07-13T13:22:38;102518.31;;;26.25;100.00
19845;BME280;10083;51.038;7.012;2023-07-13T13:25:30;102406.03;;;27.72;100.00
19845;BME280;10083;51.038;7.012;2023-07-13T13:31:50;102082.44;;;31.25;100.00
19845;BME280;10083;51.038;7.012;2023-07-13T13:38:10;102014.41;;;31.42;100.00
19845;BME280;10083;51.038;7.012;2023-07-13T13:41:11;102075.31;;;30.38;100.00
19845;BME280;10083;51.038;7.012;2023-07-13T13:44:07;102023.56;;;31.03;100.00
19845;BME280;10083;51.038;7.012;2023-07-13T13:47:08;102162.41;;;28.98;100.00
19845;BME280;10083;51.038;7.012;2023-07-13T13:49:55;102073.91;;;31.68;100.00
19845;BME280;10083;51.038;7.012;2023-07-13T13:56:43;101857.28;;;30.94;100.00
19845;BME280;10083;51.038;7.012;2023-07-13T14:00:07;102244.56;;;27.96;100.00
19845;BME280;10083;51.038;7.012;2023-07-13T14:03:15;102353.25;;;27.53;100.00
19845;BME280;10083;51.038;7.012;2023-07-13T14:06:28;102467.25;;;26.51;100.00
19845;BME280;10083;51.038;7.012;2023-07-13T14:09:22;102282.72;;;28.64;100.00
19845;BME280;10083;51.038;7.012;2023-07-13T14:15:46;102413.69;;;27.27;100.00
19845;BME280;10083;51.038;7.012;2023-07-13T14:18:23;102279.63;;;28.19;100.00
19845;BME280;10083;51.038;7.012;2023-07-13T14:20:50;102265.66;;;28.46;100.00
19845;BME280;10083;51.038;7.012;2023-07-13T14:23:19;102327.94;;;27.73;100.00
19845;BME280;10083;51.038;7.012;2023-07-13T14:25:46;102218.28;;;28.41;100.00
19845;BME280;10083;51.038;7.012;2023-07-13T14:28:22;102189.81;;;29.12;100.00
19845;BME280;10083;51.038;7.012;2023-07-13T14:30:50;102162.38;;;28.63;100.00
19845;BME280;10083;51.038;7.012;2023-07-13T14:33:22;102134.97;;;30.63;100.00
19845;BME280;10083;51.038;7.012;2023-07-13T14:35:50;102124.97;;;28.59;100.00
19845;BME280;10083;51.038;7.012;2023-07-13T14:38:23;102094.69;;;29.62;100.00
19845;BME280;10083;51.038;7.012;2023-07-13T14:40:50;102022.09;;;29.93;100.00
19845;BME280;10083;51.038;7.012;2023-07-13T14:43:17;102010.28;;;30.23;100.00
19845;BME280;10083;51.038;7.012;2023-07-13T14:45:48;102115.38;;;29.67;100.00
19845;BME280;10083;51.038;7.012;2023-07-13T14:48:19;102262.22;;;28.19;100.00
19845;BME280;10083;51.038;7.012;2023-07-13T14:50:47;102360.22;;;27.58;100.00
19845;BME280;10083;51.038;7.012;2023-07-13T14:53:15;102464.81;;;26.89;100.00
19845;BME280;10083;51.038;7.012;2023-07-13T14:55:42;102442.81;;;26.89;100.00
19845;BME280;10083;51.038;7.012;2023-07-13T14:58:29;102495.22;;;26.43;100.00
19845;BME280;10083;51.038;7.012;2023-07-13T15:00:59;102516.84;;;26.49;100.00
19845;BME280;10083;51.038;7.012;2023-07-13T15:03:27;102535.78;;;26.68;100.00
19845;BME280;10083;51.038;7.012;2023-07-13T15:05:54;102534.19;;;26.94;100.00
19845;BME280;10083;51.038;7.012;2023-07-13T15:08:22;102523.59;;;26.44;100.00
19845;BME280;10083;51.038;7.012;2023-07-13T15:10:49;102547.13;;;26.02;100.00
19845;BME280;10083;51.038;7.012;2023-07-13T15:13:46;102598.28;;;25.89;100.00
19845;BME280;10083;51.038;7.012;2023-07-13T15:16:17;102558.59;;;25.95;100.00
19845;BME280;10083;51.038;7.012;2023-07-13T15:18:45;102544.25;;;25.90;100.00
19845;BME280;10083;51.038;7.012;2023-07-13T15:21:18;102496.06;;;26.30;100.00
19845;BME280;10083;51.038;7.012;2023-07-13T15:23:46;102334.13;;;27.89;100.00
19845;BME280;10083;51.038;7.012;2023-07-13T15:26:14;102336.28;;;28.23;100.00
19845;BME280;10083;51.038;7.012;2023-07-13T15:28:42;102387.81;;;27.30;100.00
19845;BME280;10083;51.038;7.012;2023-07-13T15:31:21;102468.88;;;27.38;100.00
19845;BME280;10083;51.038;7.012;2023-07-13T15:33:51;102537.00;;;26.34;100.00
19845;BME280;10083;51.038;7.012;2023-07-13T15:36:19;102559.09;;;26.17;100.00
19845;BME280;10083;51.038;7.012;2023-07-13T15:38:47;102653.03;;;25.44;100.00
19845;BME280;10083;51.038;7.012;2023-07-13T15:41:18;102704.38;;;25.07;100.00
19845;BME280;10083;51.038;7.012;2023-07-13T15:43:56;102746.28;;;24.75;100.00
19845;BME280;10083;51.038;7.012;2023-07-13T15:46:27;102860.50;;;24.37;100.00
19845;BME280;10083;51.038;7.012;2023-07-13T15:52:16;103056.47;;;23.60;100.00
19845;BME280;10083;51.038;7.012;2023-07-13T15:55:18;103083.69;;;23.63;100.00
19845;BME280;10083;51.038;7.012;2023-07-13T15:57:47;103097.72;;;23.56;100.00